sensor_id;sensor_type;location;lat;lon;timestamp;P1;durP1;ratioP1;P2;durP2;ratioP2
25237;SDS011;13185;50.872;5.306;2023-12-20T00:00:41;7.40;;;1.40;;
25237;SDS011;13185;50.872;5.306;2023-12-20T00:03:06;9.93;;;1.38;;
25237;SDS011;13185;50.872;5.306;2023-12-20T00:05:32;9.65;;;1.40;;
25237;SDS011;13185;50.872;5.306;2023-12-20T00:07:58;7.63;;;1.45;;
25237;SDS011;13185;50.872;5.306;2023-12-20T00:10:24;8.68;;;1.85;;
25237;SDS011;13185;50.872;5.306;2023-12-20T00:12:49;7.95;;;1.52;;
25237;SDS011;13185;50.872;5.306;2023-12-20T00:15:14;7.72;;;1.40;;
25237;SDS011;13185;50.872;5.306;2023-12-20T00:17:40;6.95;;;1.42;;
25237;SDS011;13185;50.872;5.306;2023-12-20T00:20:06;7.10;;;1.10;;
25237;SDS011;13185;50.872;5.306;2023-12-20T00:22:32;10.20;;;1.30;;
25237;SDS011;13185;50.872;5.306;2023-12-20T00:24:57;8.48;;;1.70;;
25237;SDS011;13185;50.872;5.306;2023-12-20T00:27:23;10.35;;;1.30;;
25237;SDS011;13185;50.872;5.306;2023-12-20T00:29:48;7.95;;;1.15;;
25237;SDS011;13185;50.872;5.306;2023-12-20T00:32:15;13.52;;;2.30;;
25237;SDS011;13185;50.872;5.306;2023-12-20T00:34:42;9.57;;;1.67;;
25237;SDS011;13185;50.872;5.306;2023-12-20T00:37:08;8.45;;;1.20;;
25237;SDS011;13185;50.872;5.306;2023-12-20T00:39:33;5.40;;;1.42;;
25237;SDS011;13185;50.872;5.306;2023-12-20T00:41:59;7.78;;;1.05;;
25237;SDS011;13185;50.872;5.306;2023-12-20T00:44:24;12.10;;;1.05;;
25237;SDS011;13185;50.872;5.306;2023-12-20T00:46:50;9.68;;;1.30;;
25237;SDS011;13185;50.872;5.306;2023-12-20T00:49:15;8.45;;;0.95;;
25237;SDS011;13185;50.872;5.306;2023-12-20T00:51:41;11.32;;;1.35;;
25237;SDS011;13185;50.872;5.306;2023-12-20T00:54:06;5.95;;;2.00;;
25237;SDS011;13185;50.872;5.306;2023-12-20T00:56:32;9.75;;;1.42;;
25237;SDS011;13185;50.872;5.306;2023-12-20T00:58:57;6.40;;;1.25;;
25237;SDS011;13185;50.872;5.306;2023-12-20T01:01:23;7.75;;;1.63;;
25237;SDS011;13185;50.872;5.306;2023-12-20T01:03:48;10.55;;;1.27;;
25237;SDS011;13185;50.872;5.306;2023-12-20T01:06:16;7.72;;;1.27;;
25237;SDS011;13185;50.872;5.306;2023-12-20T01:08:42;7.97;;;1.45;;
25237;SDS011;13185;50.872;5.306;2023-12-20T01:11:07;9.55;;;1.35;;
25237;SDS011;13185;50.872;5.306;2023-12-20T01:13:33;8.45;;;1.38;;
25237;SDS011;13185;50.872;5.306;2023-12-20T01:15:58;10.65;;;1.48;;
25237;SDS011;13185;50.872;5.306;2023-12-20T01:18:24;12.25;;;1.77;;
25237;SDS011;13185;50.872;5.306;2023-12-20T01:20:49;6.72;;;1.25;;
25237;SDS011;13185;50.872;5.306;2023-12-20T01:23:15;6.55;;;1.30;;
25237;SDS011;13185;50.872;5.306;2023-12-20T01:25:40;10.35;;;2.17;;
25237;SDS011;13185;50.872;5.306;2023-12-20T01:28:06;8.65;;;1.63;;
25237;SDS011;13185;50.872;5.306;2023-12-20T01:30:32;8.77;;;1.60;;
25237;SDS011;13185;50.872;5.306;2023-12-20T01:32:59;7.93;;;1.50;;
25237;SDS011;13185;50.872;5.306;2023-12-20T01:35:26;11.05;;;2.15;;
25237;SDS011;13185;50.872;5.306;2023-12-20T01:37:52;8.63;;;1.30;;
25237;SDS011;13185;50.872;5.306;2023-12-20T01:40:21;7.20;;;1.15;;
25237;SDS011;13185;50.872;5.306;2023-12-20T01:42:47;9.70;;;2.22;;
25237;SDS011;13185;50.872;5.306;2023-12-20T01:45:26;7.72;;;1.20;;
25237;SDS011;13185;50.872;5.306;2023-12-20T01:47:52;7.93;;;1.20;;
25237;SDS011;13185;50.872;5.306;2023-12-20T01:50:18;7.85;;;2.00;;
25237;SDS011;13185;50.872;5.306;2023-12-20T01:52:43;7.82;;;1.40;;
25237;SDS011;13185;50.872;5.306;2023-12-20T01:55:10;7.90;;;1.80;;
25237;SDS011;13185;50.872;5.306;2023-12-20T01:57:40;10.77;;;1.92;;
25237;SDS011;13185;50.872;5.306;2023-12-20T02:00:08;8.43;;;1.20;;
25237;SDS011;13185;50.872;5.306;2023-12-20T02:02:37;11.48;;;1.80;;
25237;SDS011;13185;50.872;5.306;2023-12-20T02:05:07;11.90;;;1.70;;
25237;SDS011;13185;50.872;5.306;2023-12-20T02:07:34;4.90;;;1.38;;
25237;SDS011;13185;50.872;5.306;2023-12-20T02:10:00;9.82;;;1.35;;
25237;SDS011;13185;50.872;5.306;2023-12-20T02:12:26;8.15;;;1.50;;
25237;SDS011;13185;50.872;5.306;2023-12-20T02:14:52;13.05;;;1.88;;
25237;SDS011;13185;50.872;5.306;2023-12-20T02:17:19;10.45;;;1.65;;
25237;SDS011;13185;50.872;5.306;2023-12-20T02:19:45;8.93;;;1.27;;
25237;SDS011;13185;50.872;5.306;2023-12-20T02:22:11;4.70;;;1.30;;
25237;SDS011;13185;50.872;5.306;2023-12-20T02:24:37;9.75;;;1.80;;
25237;SDS011;13185;50.872;5.306;2023-12-20T02:27:03;11.27;;;1.67;;
25237;SDS011;13185;50.872;5.306;2023-12-20T02:29:30;12.75;;;2.13;;
25237;SDS011;13185;50.872;5.306;2023-12-20T02:31:56;5.60;;;1.20;;
25237;SDS011;13185;50.872;5.306;2023-12-20T02:34:21;7.75;;;1.50;;
25237;SDS011;13185;50.872;5.306;2023-12-20T02:36:47;8.02;;;1.75;;
25237;SDS011;13185;50.872;5.306;2023-12-20T02:39:12;9.80;;;1.60;;
25237;SDS011;13185;50.872;5.306;2023-12-20T02:41:38;8.00;;;1.58;;
25237;SDS011;13185;50.872;5.306;2023-12-20T02:44:03;7.88;;;1.80;;
25237;SDS011;13185;50.872;5.306;2023-12-20T02:46:29;8.30;;;1.83;;
25237;SDS011;13185;50.872;5.306;2023-12-20T02:48:54;8.75;;;1.67;;
25237;SDS011;13185;50.872;5.306;2023-12-20T02:51:20;8.75;;;1.88;;
25237;SDS011;13185;50.872;5.306;2023-12-20T02:53:45;11.02;;;2.10;;
25237;SDS011;13185;50.872;5.306;2023-12-20T02:56:11;8.00;;;1.75;;
25237;SDS011;13185;50.872;5.306;2023-12-20T02:58:36;8.73;;;1.40;;
25237;SDS011;13185;50.872;5.306;2023-12-20T03:01:02;7.95;;;1.55;;
25237;SDS011;13185;50.872;5.306;2023-12-20T03:03:28;8.35;;;1.75;;
25237;SDS011;13185;50.872;5.306;2023-12-20T03:05:53;11.57;;;1.70;;
25237;SDS011;13185;50.872;5.306;2023-12-20T03:08:19;7.10;;;1.50;;
25237;SDS011;13185;50.872;5.306;2023-12-20T03:10:44;10.73;;;1.65;;
25237;SDS011;13185;50.872;5.306;2023-12-20T03:13:10;11.38;;;1.80;;
25237;SDS011;13185;50.872;5.306;2023-12-20T03:15:35;7.15;;;1.63;;
25237;SDS011;13185;50.872;5.306;2023-12-20T03:18:01;13.10;;;2.83;;
25237;SDS011;13185;50.872;5.306;2023-12-20T03:20:27;9.10;;;1.55;;
25237;SDS011;13185;50.872;5.306;2023-12-20T03:22:52;7.93;;;1.55;;
25237;SDS011;13185;50.872;5.306;2023-12-20T03:25:18;12.68;;;1.50;;
25237;SDS011;13185;50.872;5.306;2023-12-20T03:27:43;5.25;;;2.17;;
25237;SDS011;13185;50.872;5.306;2023-12-20T03:30:09;9.70;;;2.22;;
25237;SDS011;13185;50.872;5.306;2023-12-20T03:32:34;9.77;;;2.33;;
25237;SDS011;13185;50.872;5.306;2023-12-20T03:35:00;9.73;;;1.80;;
25237;SDS011;13185;50.872;5.306;2023-12-20T03:37:26;9.15;;;1.95;;
25237;SDS011;13185;50.872;5.306;2023-12-20T03:39:51;9.25;;;1.90;;
25237;SDS011;13185;50.872;5.306;2023-12-20T03:42:16;11.13;;;2.50;;
25237;SDS011;13185;50.872;5.306;2023-12-20T03:44:42;7.38;;;1.92;;
25237;SDS011;13185;50.872;5.306;2023-12-20T03:47:07;7.88;;;2.15;;
25237;SDS011;13185;50.872;5.306;2023-12-20T03:49:33;7.82;;;2.10;;
25237;SDS011;13185;50.872;5.306;2023-12-20T03:51:58;10.85;;;2.63;;
25237;SDS011;13185;50.872;5.306;2023-12-20T03:54:24;7.13;;;1.77;;
25237;SDS011;13185;50.872;5.306;2023-12-20T03:56:49;9.70;;;2.10;;
25237;SDS011;13185;50.872;5.306;2023-12-20T03:59:15;8.07;;;1.85;;
25237;SDS011;13185;50.872;5.306;2023-12-20T04:01:44;8.80;;;1.92;;
25237;SDS011;13185;50.872;5.306;2023-12-20T04:04:10;11.00;;;2.50;;
25237;SDS011;13185;50.872;5.306;2023-12-20T04:06:36;11.68;;;2.47;;
25237;SDS011;13185;50.872;5.306;2023-12-20T04:09:02;9.30;;;2.60;;
25237;SDS011;13185;50.872;5.306;2023-12-20T04:11:28;10.48;;;2.17;;
25237;SDS011;13185;50.872;5.306;2023-12-20T04:13:53;15.13;;;2.33;;
25237;SDS011;13185;50.872;5.306;2023-12-20T04:16:19;10.75;;;2.15;;
25237;SDS011;13185;50.872;5.306;2023-12-20T04:18:44;11.35;;;1.98;;
25237;SDS011;13185;50.872;5.306;2023-12-20T04:21:10;12.18;;;2.38;;
25237;SDS011;13185;50.872;5.306;2023-12-20T04:23:35;14.68;;;3.03;;
25237;SDS011;13185;50.872;5.306;2023-12-20T04:26:01;10.80;;;2.00;;
25237;SDS011;13185;50.872;5.306;2023-12-20T04:28:27;12.80;;;2.67;;
25237;SDS011;13185;50.872;5.306;2023-12-20T04:30:55;6.05;;;2.40;;
25237;SDS011;13185;50.872;5.306;2023-12-20T04:33:21;10.45;;;2.33;;
25237;SDS011;13185;50.872;5.306;2023-12-20T04:35:47;15.05;;;2.55;;
25237;SDS011;13185;50.872;5.306;2023-12-20T04:38:13;11.48;;;2.47;;
25237;SDS011;13185;50.872;5.306;2023-12-20T04:40:38;8.50;;;2.40;;
25237;SDS011;13185;50.872;5.306;2023-12-20T04:43:06;9.68;;;2.10;;
25237;SDS011;13185;50.872;5.306;2023-12-20T04:45:32;16.90;;;3.35;;
25237;SDS011;13185;50.872;5.306;2023-12-20T04:47:57;12.63;;;2.88;;
25237;SDS011;13185;50.872;5.306;2023-12-20T04:50:23;14.68;;;3.35;;
25237;SDS011;13185;50.872;5.306;2023-12-20T04:52:48;11.20;;;3.25;;
25237;SDS011;13185;50.872;5.306;2023-12-20T04:55:14;11.32;;;2.55;;
25237;SDS011;13185;50.872;5.306;2023-12-20T04:57:39;9.95;;;2.47;;
25237;SDS011;13185;50.872;5.306;2023-12-20T05:00:05;16.10;;;3.33;;
25237;SDS011;13185;50.872;5.306;2023-12-20T05:02:33;9.75;;;2.80;;
25237;SDS011;13185;50.872;5.306;2023-12-20T05:04:59;13.55;;;3.03;;
25237;SDS011;13185;50.872;5.306;2023-12-20T05:07:24;10.98;;;3.30;;
25237;SDS011;13185;50.872;5.306;2023-12-20T05:09:50;10.45;;;3.03;;
25237;SDS011;13185;50.872;5.306;2023-12-20T05:12:15;9.13;;;3.05;;
25237;SDS011;13185;50.872;5.306;2023-12-20T05:14:41;11.18;;;3.47;;
25237;SDS011;13185;50.872;5.306;2023-12-20T05:17:06;8.93;;;2.97;;
25237;SDS011;13185;50.872;5.306;2023-12-20T05:19:32;10.68;;;3.50;;
25237;SDS011;13185;50.872;5.306;2023-12-20T05:22:00;8.57;;;2.67;;
25237;SDS011;13185;50.872;5.306;2023-12-20T05:24:27;14.50;;;3.30;;
25237;SDS011;13185;50.872;5.306;2023-12-20T05:26:53;12.43;;;2.85;;
25237;SDS011;13185;50.872;5.306;2023-12-20T05:29:18;7.32;;;2.40;;
25237;SDS011;13185;50.872;5.306;2023-12-20T05:31:44;12.80;;;2.70;;
25237;SDS011;13185;50.872;5.306;2023-12-20T05:34:09;12.00;;;3.15;;
25237;SDS011;13185;50.872;5.306;2023-12-20T05:36:36;18.50;;;3.80;;
25237;SDS011;13185;50.872;5.306;2023-12-20T05:39:02;9.27;;;2.78;;
25237;SDS011;13185;50.872;5.306;2023-12-20T05:41:29;15.20;;;2.72;;
25237;SDS011;13185;50.872;5.306;2023-12-20T05:43:55;14.07;;;2.95;;
25237;SDS011;13185;50.872;5.306;2023-12-20T05:46:20;10.18;;;2.60;;
25237;SDS011;13185;50.872;5.306;2023-12-20T05:48:46;11.27;;;2.80;;
25237;SDS011;13185;50.872;5.306;2023-12-20T05:51:12;9.52;;;2.63;;
25237;SDS011;13185;50.872;5.306;2023-12-20T05:53:38;7.50;;;2.38;;
25237;SDS011;13185;50.872;5.306;2023-12-20T05:56:04;10.27;;;2.42;;
25237;SDS011;13185;50.872;5.306;2023-12-20T05:58:30;13.38;;;3.20;;
25237;SDS011;13185;50.872;5.306;2023-12-20T06:00:55;10.50;;;2.88;;
25237;SDS011;13185;50.872;5.306;2023-12-20T06:03:20;14.43;;;3.47;;
25237;SDS011;13185;50.872;5.306;2023-12-20T06:05:46;14.00;;;2.63;;
25237;SDS011;13185;50.872;5.306;2023-12-20T06:08:11;7.43;;;2.40;;
25237;SDS011;13185;50.872;5.306;2023-12-20T06:10:37;8.07;;;2.80;;
25237;SDS011;13185;50.872;5.306;2023-12-20T06:13:03;10.98;;;2.35;;
25237;SDS011;13185;50.872;5.306;2023-12-20T06:15:29;16.77;;;3.03;;
25237;SDS011;13185;50.872;5.306;2023-12-20T06:17:55;9.75;;;2.53;;
25237;SDS011;13185;50.872;5.306;2023-12-20T06:20:20;17.10;;;2.97;;
25237;SDS011;13185;50.872;5.306;2023-12-20T06:22:46;11.52;;;2.97;;
25237;SDS011;13185;50.872;5.306;2023-12-20T06:25:12;10.25;;;2.50;;
25237;SDS011;13185;50.872;5.306;2023-12-20T06:27:37;9.55;;;3.35;;
25237;SDS011;13185;50.872;5.306;2023-12-20T06:30:03;11.27;;;2.90;;
25237;SDS011;13185;50.872;5.306;2023-12-20T06:32:29;13.73;;;4.30;;
25237;SDS011;13185;50.872;5.306;2023-12-20T06:34:55;15.07;;;3.13;;
25237;SDS011;13185;50.872;5.306;2023-12-20T06:37:21;15.80;;;3.85;;
25237;SDS011;13185;50.872;5.306;2023-12-20T06:39:46;21.25;;;4.07;;
25237;SDS011;13185;50.872;5.306;2023-12-20T06:42:12;12.45;;;2.97;;
25237;SDS011;13185;50.872;5.306;2023-12-20T06:44:38;13.68;;;2.95;;
25237;SDS011;13185;50.872;5.306;2023-12-20T06:47:04;13.65;;;3.45;;
25237;SDS011;13185;50.872;5.306;2023-12-20T06:49:29;16.02;;;3.08;;
25237;SDS011;13185;50.872;5.306;2023-12-20T06:51:55;13.85;;;3.13;;
25237;SDS011;13185;50.872;5.306;2023-12-20T06:54:21;13.63;;;3.30;;
25237;SDS011;13185;50.872;5.306;2023-12-20T06:56:46;10.77;;;3.35;;
25237;SDS011;13185;50.872;5.306;2023-12-20T06:59:12;13.95;;;3.45;;
25237;SDS011;13185;50.872;5.306;2023-12-20T07:01:37;15.43;;;4.80;;
25237;SDS011;13185;50.872;5.306;2023-12-20T07:04:03;16.35;;;3.30;;
25237;SDS011;13185;50.872;5.306;2023-12-20T07:06:28;11.43;;;3.58;;
25237;SDS011;13185;50.872;5.306;2023-12-20T07:08:54;14.43;;;3.03;;
25237;SDS011;13185;50.872;5.306;2023-12-20T07:11:19;11.23;;;3.13;;
25237;SDS011;13185;50.872;5.306;2023-12-20T07:13:45;14.13;;;3.10;;
25237;SDS011;13185;50.872;5.306;2023-12-20T07:16:11;19.60;;;3.38;;
25237;SDS011;13185;50.872;5.306;2023-12-20T07:18:36;12.73;;;3.13;;
25237;SDS011;13185;50.872;5.306;2023-12-20T07:21:02;13.60;;;3.20;;
25237;SDS011;13185;50.872;5.306;2023-12-20T07:23:28;14.82;;;3.60;;
25237;SDS011;13185;50.872;5.306;2023-12-20T07:25:54;15.65;;;2.95;;
25237;SDS011;13185;50.872;5.306;2023-12-20T07:28:19;11.43;;;3.38;;
25237;SDS011;13185;50.872;5.306;2023-12-20T07:30:45;18.08;;;3.88;;
25237;SDS011;13185;50.872;5.306;2023-12-20T07:33:11;15.50;;;2.92;;
25237;SDS011;13185;50.872;5.306;2023-12-20T07:35:37;13.32;;;3.53;;
25237;SDS011;13185;50.872;5.306;2023-12-20T07:38:03;14.45;;;3.13;;
25237;SDS011;13185;50.872;5.306;2023-12-20T07:40:29;15.65;;;2.97;;
25237;SDS011;13185;50.872;5.306;2023-12-20T07:42:54;11.32;;;2.90;;
25237;SDS011;13185;50.872;5.306;2023-12-20T07:45:20;13.45;;;2.75;;
25237;SDS011;13185;50.872;5.306;2023-12-20T07:47:45;19.02;;;3.17;;
25237;SDS011;13185;50.872;5.306;2023-12-20T07:50:11;14.90;;;2.95;;
25237;SDS011;13185;50.872;5.306;2023-12-20T07:52:36;16.65;;;3.70;;
25237;SDS011;13185;50.872;5.306;2023-12-20T07:55:02;12.88;;;2.75;;
25237;SDS011;13185;50.872;5.306;2023-12-20T07:57:30;20.35;;;3.22;;
25237;SDS011;13185;50.872;5.306;2023-12-20T07:59:56;16.48;;;2.95;;
25237;SDS011;13185;50.872;5.306;2023-12-20T08:02:21;16.10;;;3.28;;
25237;SDS011;13185;50.872;5.306;2023-12-20T08:04:47;15.52;;;2.95;;
25237;SDS011;13185;50.872;5.306;2023-12-20T08:07:13;19.03;;;3.07;;
25237;SDS011;13185;50.872;5.306;2023-12-20T08:09:38;19.25;;;3.53;;
25237;SDS011;13185;50.872;5.306;2023-12-20T08:12:04;14.77;;;2.80;;
25237;SDS011;13185;50.872;5.306;2023-12-20T08:14:29;13.50;;;2.90;;
25237;SDS011;13185;50.872;5.306;2023-12-20T08:16:55;17.10;;;3.65;;
25237;SDS011;13185;50.872;5.306;2023-12-20T08:19:20;20.50;;;3.88;;
25237;SDS011;13185;50.872;5.306;2023-12-20T08:21:46;14.20;;;3.60;;
25237;SDS011;13185;50.872;5.306;2023-12-20T08:24:11;17.02;;;4.13;;
25237;SDS011;13185;50.872;5.306;2023-12-20T08:26:37;11.63;;;3.42;;
25237;SDS011;13185;50.872;5.306;2023-12-20T08:29:02;13.95;;;3.40;;
25237;SDS011;13185;50.872;5.306;2023-12-20T08:31:28;14.30;;;4.03;;
25237;SDS011;13185;50.872;5.306;2023-12-20T08:33:54;12.48;;;2.63;;
25237;SDS011;13185;50.872;5.306;2023-12-20T08:36:21;15.75;;;2.88;;
25237;SDS011;13185;50.872;5.306;2023-12-20T08:38:48;14.68;;;3.08;;
25237;SDS011;13185;50.872;5.306;2023-12-20T08:41:14;10.52;;;2.53;;
25237;SDS011;13185;50.872;5.306;2023-12-20T08:43:39;16.75;;;2.45;;
25237;SDS011;13185;50.872;5.306;2023-12-20T08:46:08;12.75;;;2.60;;
25237;SDS011;13185;50.872;5.306;2023-12-20T08:48:37;12.20;;;2.58;;
25237;SDS011;13185;50.872;5.306;2023-12-20T08:51:03;8.35;;;2.15;;
25237;SDS011;13185;50.872;5.306;2023-12-20T08:53:29;8.25;;;2.38;;
25237;SDS011;13185;50.872;5.306;2023-12-20T08:55:54;12.95;;;2.50;;
25237;SDS011;13185;50.872;5.306;2023-12-20T08:58:20;13.27;;;2.03;;
25237;SDS011;13185;50.872;5.306;2023-12-20T09:00:46;11.55;;;2.15;;
25237;SDS011;13185;50.872;5.306;2023-12-20T09:03:11;12.50;;;2.15;;
25237;SDS011;13185;50.872;5.306;2023-12-20T09:05:36;8.77;;;2.70;;
25237;SDS011;13185;50.872;5.306;2023-12-20T09:08:02;8.15;;;1.88;;
25237;SDS011;13185;50.872;5.306;2023-12-20T09:10:28;7.70;;;1.80;;
25237;SDS011;13185;50.872;5.306;2023-12-20T09:12:53;11.43;;;2.60;;
25237;SDS011;13185;50.872;5.306;2023-12-20T09:15:25;13.52;;;1.80;;
25237;SDS011;13185;50.872;5.306;2023-12-20T09:17:52;12.75;;;2.10;;
25237;SDS011;13185;50.872;5.306;2023-12-20T09:20:18;11.68;;;1.98;;
25237;SDS011;13185;50.872;5.306;2023-12-20T09:22:44;13.75;;;1.88;;
25237;SDS011;13185;50.872;5.306;2023-12-20T09:25:10;12.63;;;3.20;;
25237;SDS011;13185;50.872;5.306;2023-12-20T09:27:40;11.93;;;2.75;;
25237;SDS011;13185;50.872;5.306;2023-12-20T09:30:06;11.07;;;1.88;;
25237;SDS011;13185;50.872;5.306;2023-12-20T09:32:32;12.68;;;2.08;;
25237;SDS011;13185;50.872;5.306;2023-12-20T09:34:58;11.60;;;1.92;;
25237;SDS011;13185;50.872;5.306;2023-12-20T09:37:26;10.60;;;2.22;;
25237;SDS011;13185;50.872;5.306;2023-12-20T09:39:52;15.00;;;2.40;;
25237;SDS011;13185;50.872;5.306;2023-12-20T09:42:20;6.35;;;2.03;;
25237;SDS011;13185;50.872;5.306;2023-12-20T09:44:50;10.70;;;2.25;;
25237;SDS011;13185;50.872;5.306;2023-12-20T09:47:16;9.77;;;2.17;;
25237;SDS011;13185;50.872;5.306;2023-12-20T09:49:47;8.05;;;1.77;;
25237;SDS011;13185;50.872;5.306;2023-12-20T09:52:12;8.80;;;1.75;;
25237;SDS011;13185;50.872;5.306;2023-12-20T09:54:39;7.75;;;2.17;;
25237;SDS011;13185;50.872;5.306;2023-12-20T09:57:06;9.65;;;2.35;;
25237;SDS011;13185;50.872;5.306;2023-12-20T09:59:31;10.80;;;2.53;;
25237;SDS011;13185;50.872;5.306;2023-12-20T10:01:57;14.82;;;2.53;;
25237;SDS011;13185;50.872;5.306;2023-12-20T10:04:23;12.77;;;2.72;;
25237;SDS011;13185;50.872;5.306;2023-12-20T10:06:48;6.75;;;1.88;;
25237;SDS011;13185;50.872;5.306;2023-12-20T10:09:14;11.73;;;2.00;;
25237;SDS011;13185;50.872;5.306;2023-12-20T10:11:39;14.85;;;2.50;;
25237;SDS011;13185;50.872;5.306;2023-12-20T10:14:06;16.77;;;2.50;;
25237;SDS011;13185;50.872;5.306;2023-12-20T10:16:33;10.35;;;1.85;;
25237;SDS011;13185;50.872;5.306;2023-12-20T10:19:00;10.57;;;2.53;;
25237;SDS011;13185;50.872;5.306;2023-12-20T10:21:29;10.80;;;2.25;;
25237;SDS011;13185;50.872;5.306;2023-12-20T10:23:55;11.85;;;2.10;;
25237;SDS011;13185;50.872;5.306;2023-12-20T10:26:22;10.60;;;2.67;;
25237;SDS011;13185;50.872;5.306;2023-12-20T10:28:55;17.02;;;3.17;;
25237;SDS011;13185;50.872;5.306;2023-12-20T10:31:32;12.27;;;3.05;;
25237;SDS011;13185;50.872;5.306;2023-12-20T10:33:59;9.85;;;2.58;;
25237;SDS011;13185;50.872;5.306;2023-12-20T10:36:26;15.40;;;2.45;;
25237;SDS011;13185;50.872;5.306;2023-12-20T10:38:53;17.25;;;2.88;;
25237;SDS011;13185;50.872;5.306;2023-12-20T10:41:24;13.80;;;3.20;;
25237;SDS011;13185;50.872;5.306;2023-12-20T10:43:56;12.85;;;2.97;;
25237;SDS011;13185;50.872;5.306;2023-12-20T10:46:26;10.40;;;3.03;;
25237;SDS011;13185;50.872;5.306;2023-12-20T10:48:53;10.63;;;2.45;;
25237;SDS011;13185;50.872;5.306;2023-12-20T10:51:20;7.00;;;2.03;;
25237;SDS011;13185;50.872;5.306;2023-12-20T10:53:47;14.70;;;3.05;;
25237;SDS011;13185;50.872;5.306;2023-12-20T10:56:15;11.93;;;2.33;;
25237;SDS011;13185;50.872;5.306;2023-12-20T10:58:43;9.93;;;2.65;;
25237;SDS011;13185;50.872;5.306;2023-12-20T11:01:09;9.43;;;2.15;;
25237;SDS011;13185;50.872;5.306;2023-12-20T11:03:43;8.80;;;1.80;;
25237;SDS011;13185;50.872;5.306;2023-12-20T11:06:24;8.57;;;1.70;;
25237;SDS011;13185;50.872;5.306;2023-12-20T11:09:12;11.90;;;1.90;;
25237;SDS011;13185;50.872;5.306;2023-12-20T11:14:27;9.40;;;2.28;;
25237;SDS011;13185;50.872;5.306;2023-12-20T11:17:13;11.40;;;2.35;;
25237;SDS011;13185;50.872;5.306;2023-12-20T11:22:19;15.40;;;1.80;;
25237;SDS011;13185;50.872;5.306;2023-12-20T11:24:46;7.70;;;1.63;;
25237;SDS011;13185;50.872;5.306;2023-12-20T11:27:13;11.80;;;2.03;;
25237;SDS011;13185;50.872;5.306;2023-12-20T11:29:39;12.80;;;2.30;;
25237;SDS011;13185;50.872;5.306;2023-12-20T11:34:59;8.88;;;2.10;;
25237;SDS011;13185;50.872;5.306;2023-12-20T11:37:45;9.18;;;1.75;;
25237;SDS011;13185;50.872;5.306;2023-12-20T11:40:13;11.48;;;1.90;;
25237;SDS011;13185;50.872;5.306;2023-12-20T11:42:41;13.00;;;1.83;;
25237;SDS011;13185;50.872;5.306;2023-12-20T11:45:18;12.40;;;2.67;;
25237;SDS011;13185;50.872;5.306;2023-12-20T11:47:47;10.07;;;2.30;;
25237;SDS011;13185;50.872;5.306;2023-12-20T11:50:15;10.65;;;1.90;;
25237;SDS011;13185;50.872;5.306;2023-12-20T11:52:43;15.00;;;2.50;;
25237;SDS011;13185;50.872;5.306;2023-12-20T11:55:09;9.50;;;1.92;;
25237;SDS011;13185;50.872;5.306;2023-12-20T11:57:35;11.10;;;1.90;;
25237;SDS011;13185;50.872;5.306;2023-12-20T12:00:01;11.65;;;2.08;;
25237;SDS011;13185;50.872;5.306;2023-12-20T12:02:37;6.65;;;1.90;;
25237;SDS011;13185;50.872;5.306;2023-12-20T12:05:03;17.15;;;2.45;;
25237;SDS011;13185;50.872;5.306;2023-12-20T12:07:31;12.45;;;2.90;;
25237;SDS011;13185;50.872;5.306;2023-12-20T12:09:57;12.10;;;2.10;;
25237;SDS011;13185;50.872;5.306;2023-12-20T12:12:23;15.77;;;2.63;;
25237;SDS011;13185;50.872;5.306;2023-12-20T12:14:50;10.18;;;2.40;;
25237;SDS011;13185;50.872;5.306;2023-12-20T12:17:16;10.93;;;2.00;;
25237;SDS011;13185;50.872;5.306;2023-12-20T12:19:41;11.18;;;1.90;;
25237;SDS011;13185;50.872;5.306;2023-12-20T12:22:09;9.55;;;2.72;;
25237;SDS011;13185;50.872;5.306;2023-12-20T12:24:39;7.75;;;1.65;;
25237;SDS011;13185;50.872;5.306;2023-12-20T12:27:08;9.30;;;2.00;;
25237;SDS011;13185;50.872;5.306;2023-12-20T12:29:34;6.43;;;1.80;;
25237;SDS011;13185;50.872;5.306;2023-12-20T12:32:01;5.85;;;2.13;;
25237;SDS011;13185;50.872;5.306;2023-12-20T12:34:31;13.50;;;2.33;;
25237;SDS011;13185;50.872;5.306;2023-12-20T12:36:56;14.80;;;2.58;;
25237;SDS011;13185;50.872;5.306;2023-12-20T12:39:23;10.60;;;2.20;;
25237;SDS011;13185;50.872;5.306;2023-12-20T12:41:52;12.40;;;2.25;;
25237;SDS011;13185;50.872;5.306;2023-12-20T12:44:18;7.07;;;1.48;;
25237;SDS011;13185;50.872;5.306;2023-12-20T12:46:45;14.45;;;2.30;;
25237;SDS011;13185;50.872;5.306;2023-12-20T12:49:11;12.05;;;2.13;;
25237;SDS011;13185;50.872;5.306;2023-12-20T12:51:36;7.78;;;1.92;;
25237;SDS011;13185;50.872;5.306;2023-12-20T12:54:02;13.55;;;2.33;;
25237;SDS011;13185;50.872;5.306;2023-12-20T12:56:28;7.32;;;1.85;;
25237;SDS011;13185;50.872;5.306;2023-12-20T12:58:54;11.98;;;2.20;;
25237;SDS011;13185;50.872;5.306;2023-12-20T13:01:20;9.43;;;1.88;;
25237;SDS011;13185;50.872;5.306;2023-12-20T13:03:45;9.00;;;1.70;;
25237;SDS011;13185;50.872;5.306;2023-12-20T13:06:12;8.20;;;1.45;;
25237;SDS011;13185;50.872;5.306;2023-12-20T13:08:37;8.20;;;1.85;;
25237;SDS011;13185;50.872;5.306;2023-12-20T13:11:03;11.13;;;2.40;;
25237;SDS011;13185;50.872;5.306;2023-12-20T13:13:32;8.30;;;1.92;;
25237;SDS011;13185;50.872;5.306;2023-12-20T13:15:57;10.52;;;2.00;;
25237;SDS011;13185;50.872;5.306;2023-12-20T13:18:23;7.47;;;2.13;;
25237;SDS011;13185;50.872;5.306;2023-12-20T13:20:48;10.85;;;1.75;;
25237;SDS011;13185;50.872;5.306;2023-12-20T13:23:14;9.15;;;1.95;;
25237;SDS011;13185;50.872;5.306;2023-12-20T13:25:40;11.00;;;2.10;;
25237;SDS011;13185;50.872;5.306;2023-12-20T13:28:06;11.60;;;2.28;;
25237;SDS011;13185;50.872;5.306;2023-12-20T13:30:33;15.35;;;2.33;;
25237;SDS011;13185;50.872;5.306;2023-12-20T13:32:59;13.07;;;1.98;;
25237;SDS011;13185;50.872;5.306;2023-12-20T13:35:25;11.50;;;2.05;;
25237;SDS011;13185;50.872;5.306;2023-12-20T13:37:50;12.05;;;2.45;;
25237;SDS011;13185;50.872;5.306;2023-12-20T13:40:18;9.02;;;2.10;;
25237;SDS011;13185;50.872;5.306;2023-12-20T13:42:43;8.38;;;1.88;;
25237;SDS011;13185;50.872;5.306;2023-12-20T13:45:10;16.00;;;2.92;;
25237;SDS011;13185;50.872;5.306;2023-12-20T13:47:36;13.55;;;2.75;;
25237;SDS011;13185;50.872;5.306;2023-12-20T13:50:02;9.88;;;2.60;;
25237;SDS011;13185;50.872;5.306;2023-12-20T13:52:29;9.05;;;2.45;;
25237;SDS011;13185;50.872;5.306;2023-12-20T13:54:54;11.45;;;2.45;;
25237;SDS011;13185;50.872;5.306;2023-12-20T13:57:20;13.20;;;2.13;;
25237;SDS011;13185;50.872;5.306;2023-12-20T13:59:45;12.15;;;1.95;;
25237;SDS011;13185;50.872;5.306;2023-12-20T14:02:11;10.40;;;2.35;;
25237;SDS011;13185;50.872;5.306;2023-12-20T14:04:36;9.10;;;2.40;;
25237;SDS011;13185;50.872;5.306;2023-12-20T14:07:04;5.55;;;1.75;;
25237;SDS011;13185;50.872;5.306;2023-12-20T14:09:30;8.35;;;2.25;;
25237;SDS011;13185;50.872;5.306;2023-12-20T14:11:55;7.95;;;2.20;;
25237;SDS011;13185;50.872;5.306;2023-12-20T14:14:21;10.27;;;2.28;;
25237;SDS011;13185;50.872;5.306;2023-12-20T14:16:46;12.93;;;3.30;;
25237;SDS011;13185;50.872;5.306;2023-12-20T14:19:12;7.85;;;2.20;;
25237;SDS011;13185;50.872;5.306;2023-12-20T14:21:37;7.00;;;2.25;;
25237;SDS011;13185;50.872;5.306;2023-12-20T14:24:03;9.15;;;2.50;;
25237;SDS011;13185;50.872;5.306;2023-12-20T14:26:29;13.50;;;2.08;;
25237;SDS011;13185;50.872;5.306;2023-12-20T14:28:55;10.60;;;2.20;;
25237;SDS011;13185;50.872;5.306;2023-12-20T14:31:21;13.60;;;2.95;;
25237;SDS011;13185;50.872;5.306;2023-12-20T14:33:49;10.05;;;1.70;;
25237;SDS011;13185;50.872;5.306;2023-12-20T14:36:16;10.73;;;2.42;;
25237;SDS011;13185;50.872;5.306;2023-12-20T14:38:43;8.00;;;2.00;;
25237;SDS011;13185;50.872;5.306;2023-12-20T14:41:09;12.50;;;2.58;;
25237;SDS011;13185;50.872;5.306;2023-12-20T14:43:34;12.40;;;2.60;;